Time,TemperatureF,DewpointF,PressureIn,WindDirection,WindDirectionDegrees,WindSpeedMPH,WindSpeedGustMPH,Humidity,HourlyPrecipIn,Conditions,Clouds,dailyrainin,SoftwareType,DateUTC
2013-03-17 00:03:00,55.9,53.0,29.90,WSW,242,14.0,-999.0,89,-99.99,,,0.00,weatherlink.com 1.10,2013-03-17 04:03:00,
2013-03-17 00:18:00,55.8,53.0,29.90,WSW,240,13.0,-999.0,90,-99.99,,,0.00,weatherlink.com 1.10,2013-03-17 04:18:00,
2013-03-17 00:33:00,55.7,53.0,29.90,West,261,12.0,-999.0,90,-99.99,,,0.00,weatherlink.com 1.10,2013-03-17 04:33:00,
2013-03-17 00:48:00,55.6,53.0,29.90,WSW,250,12.0,-999.0,90,-99.99,,,0.00,weatherlink.com 1.10,2013-03-17 04:48:00,
2013-03-17 01:03:00,55.4,53.0,29.90,WSW,240,12.0,-999.0,90,-99.99,,,0.00,weatherlink.com 1.10,2013-03-17 05:03:00,
2013-03-17 01:18:00,55.3,53.0,29.90,WSW,244,14.0,-999.0,91,-99.99,,,0.00,weatherlink.com 1.10,2013-03-17 05:18:00,
2013-03-17 01:33:00,55.3,53.0,29.90,WSW,244,15.0,-999.0,91,-99.99,,,0.00,weatherlink.com 1.10,2013-03-17 05:33:00,
2013-03-17 01:48:00,55.4,53.0,29.90,WSW,242,14.0,-999.0,91,-99.99,,,0.00,weatherlink.com 1.10,2013-03-17 05:48:00,
2013-03-17 02:03:00,55.5,53.0,29.91,WSW,244,15.0,-999.0,91,-99.99,,,0.00,weatherlink.com 1.10,2013-03-17 06:03:00,
2013-03-17 02:18:00,55.4,53.0,29.91,WSW,250,12.0,-999.0,91,-99.99,,,0.00,weatherlink.com 1.10,2013-03-17 06:18:00,
2013-03-17 02:33:00,55.3,53.0,29.91,WSW,242,14.0,-999.0,91,-99.99,,,0.00,weatherlink.com 1.10,2013-03-17 06:33:00,
2013-03-17 02:48:00,55.3,53.0,29.91,WSW,241,13.0,-999.0,91,-99.99,,,0.00,weatherlink.com 1.10,2013-03-17 06:48:00,
2013-03-17 03:03:00,55.1,53.0,29.92,WSW,250,8.0,-999.0,91,-99.99,,,0.00,weatherlink.com 1.10,2013-03-17 07:03:00,
2013-03-17 03:18:00,54.8,52.0,29.92,West,269,6.0,-999.0,91,-99.99,,,0.00,weatherlink.com 1.10,2013-03-17 07:18:00,
2013-03-17 03:33:00,54.7,52.0,29.92,WSW,250,6.0,-999.0,91,-99.99,,,0.00,weatherlink.com 1.10,2013-03-17 07:33:00,
2013-03-17 03:48:00,54.5,52.0,29.92,WNW,296,6.0,-999.0,91,-99.99,,,0.00,weatherlink.com 1.10,2013-03-17 07:48:00,
2013-03-17 04:04:00,54.3,52.0,29.92,WSW,247,5.0,-999.0,91,-99.99,,,0.00,weatherlink.com 1.10,2013-03-17 08:04:00,
2013-03-17 04:18:00,54.2,52.0,29.91,WSW,256,6.0,-999.0,92,-99.99,,,0.00,weatherlink.com 1.10,2013-03-17 08:18:00,
2013-03-17 04:33:00,54.0,52.0,29.91,WSW,250,4.0,-999.0,92,-99.99,,,0.00,weatherlink.com 1.10,2013-03-17 08:33:00,
2013-03-17 04:48:00,54.1,52.0,29.91,WSW,244,9.0,-999.0,93,-99.99,,,0.00,weatherlink.com 1.10,2013-03-17 08:48:00,
2013-03-17 05:03:00,54.0,52.0,29.92,WSW,246,7.0,-999.0,93,-99.99,,,0.00,weatherlink.com 1.10,2013-03-17 09:03:00,
2013-03-17 05:18:00,53.9,52.0,29.93,WSW,248,8.0,-999.0,93,-99.99,,,0.00,weatherlink.com 1.10,2013-03-17 09:18:00,
2013-03-17 05:33:00,53.8,52.0,29.93,West,263,4.0,-999.0,93,-99.99,,,0.00,weatherlink.com 1.10,2013-03-17 09:33:00,
2013-03-17 05:49:00,53.9,52.0,29.94,WSW,241,7.0,-999.0,93,-99.99,,,0.00,weatherlink.com 1.10,2013-03-17 09:49:00,
2013-03-17 06:04:00,53.9,52.0,29.95,WSW,248,6.0,-999.0,93,-99.99,,,0.00,weatherlink.com 1.10,2013-03-17 10:04:00,
2013-03-17 06:19:00,53.7,52.0,29.95,WSW,250,6.0,-999.0,93,-99.99,,,0.00,weatherlink.com 1.10,2013-03-17 10:19:00,
2013-03-17 06:34:00,53.7,52.0,29.96,SW,235,6.0,-999.0,93,-99.99,,,0.00,weatherlink.com 1.10,2013-03-17 10:34:00,
2013-03-17 06:49:00,53.7,52.0,29.97,WSW,244,6.0,-999.0,93,-99.99,,,0.00,weatherlink.com 1.10,2013-03-17 10:49:00,
2013-03-17 07:04:00,53.3,51.0,29.98,NE,36,6.0,-999.0,93,-99.99,,,0.00,weatherlink.com 1.10,2013-03-17 11:04:00,
2013-03-17 07:19:00,52.8,51.0,30.00,NE,54,4.0,-999.0,92,-99.99,,,0.00,weatherlink.com 1.10,2013-03-17 11:19:00,
2013-03-17 07:34:00,52.5,50.0,30.00,ENE,78,2.0,-999.0,92,-99.99,,,0.00,weatherlink.com 1.10,2013-03-17 11:34:00,
2013-03-17 07:49:00,53.2,51.0,30.00,East,92,0.0,-999.0,92,-99.99,,,0.00,weatherlink.com 1.10,2013-03-17 11:49:00,
2013-03-17 08:04:00,54.4,52.0,30.00,ESE,117,1.0,-999.0,92,-99.99,,,0.00,weatherlink.com 1.10,2013-03-17 12:04:00,
2013-03-17 08:19:00,55.5,53.0,30.00,NE,52,4.0,-999.0,92,-99.99,,,0.00,weatherlink.com 1.10,2013-03-17 12:19:00,
2013-03-17 08:34:00,56.0,53.0,30.02,ENE,66,8.0,-999.0,89,-99.99,,,0.00,weatherlink.com 1.10,2013-03-17 12:34:00,
2013-03-17 08:49:00,55.8,52.0,30.02,NE,51,10.0,-999.0,87,-99.99,,,0.00,weatherlink.com 1.10,2013-03-17 12:49:00,
2013-03-17 09:04:00,53.9,51.0,30.03,East,86,7.0,-999.0,89,-99.99,,,0.00,weatherlink.com 1.10,2013-03-17 13:04:00,
2013-03-17 09:19:00,53.4,51.0,30.04,NE,36,7.0,-999.0,90,-99.99,,,0.00,weatherlink.com 1.10,2013-03-17 13:19:00,
2013-03-17 09:34:00,53.6,51.0,30.04,ENE,61,11.0,-999.0,91,-99.99,,,0.00,weatherlink.com 1.10,2013-03-17 13:34:00,
2013-03-17 09:49:00,53.8,52.0,30.04,ENE,62,6.0,-999.0,92,-99.99,,,0.00,weatherlink.com 1.10,2013-03-17 13:49:00,
2013-03-17 10:04:00,53.9,51.0,30.04,East,94,11.0,-999.0,91,-99.99,,,0.00,weatherlink.com 1.10,2013-03-17 14:04:00,
2013-03-17 10:19:00,54.3,52.0,30.04,ENE,64,7.0,-999.0,92,-99.99,,,0.00,weatherlink.com 1.10,2013-03-17 14:19:00,
2013-03-17 10:34:00,56.8,54.0,30.04,East,82,13.0,-999.0,89,-99.99,,,0.00,weatherlink.com 1.10,2013-03-17 14:34:00,
2013-03-17 10:49:00,57.7,53.0,30.04,East,100,9.0,-999.0,84,-99.99,,,0.00,weatherlink.com 1.10,2013-03-17 14:49:00,
2013-03-17 11:04:00,56.4,52.0,30.05,SE,135,9.0,-999.0,86,-99.99,,,0.00,weatherlink.com 1.10,2013-03-17 15:04:00,
2013-03-17 11:19:00,55.6,53.0,30.06,SE,138,9.0,-999.0,89,-99.99,,,0.00,weatherlink.com 1.10,2013-03-17 15:19:00,
2013-03-17 11:34:00,55.4,53.0,30.06,SE,132,11.0,-999.0,90,-99.99,,,0.00,weatherlink.com 1.10,2013-03-17 15:34:00,
2013-03-17 11:49:00,56.7,53.0,30.06,ESE,119,14.0,-999.0,88,-99.99,,,0.00,weatherlink.com 1.10,2013-03-17 15:49:00,
2013-03-17 12:04:00,56.5,52.0,30.05,ESE,118,15.0,-999.0,86,-99.99,,,0.00,weatherlink.com 1.10,2013-03-17 16:04:00,
2013-03-17 12:19:00,56.4,53.0,30.05,ESE,109,14.0,-999.0,87,-99.99,,,0.00,weatherlink.com 1.10,2013-03-17 16:19:00,
2013-03-17 12:34:00,56.9,53.0,30.05,ESE,113,18.0,-999.0,87,-99.99,,,0.00,weatherlink.com 1.10,2013-03-17 16:34:00,
2013-03-17 12:49:00,57.4,54.0,30.05,ESE,109,15.0,-999.0,88,-99.99,,,0.00,weatherlink.com 1.10,2013-03-17 16:49:00,
2013-03-17 13:04:00,58.0,54.0,30.06,ESE,115,12.0,-999.0,87,-99.99,,,0.00,weatherlink.com 1.10,2013-03-17 17:04:00,
2013-03-17 13:19:00,58.6,55.0,30.06,ESE,104,13.0,-999.0,86,-99.99,,,0.00,weatherlink.com 1.10,2013-03-17 17:19:00,
2013-03-17 13:34:00,60.3,55.0,30.05,ESE,115,11.0,-999.0,83,-99.99,,,0.00,weatherlink.com 1.10,2013-03-17 17:34:00,
2013-03-17 13:49:00,61.6,55.0,30.06,ENE,78,13.0,-999.0,80,-99.99,,,0.00,weatherlink.com 1.10,2013-03-17 17:49:00,
2013-03-17 14:04:00,61.2,55.0,30.05,NE,42,6.0,-999.0,80,-99.99,,,0.00,weatherlink.com 1.10,2013-03-17 18:04:00,
2013-03-17 14:19:00,61.3,54.0,30.05,East,86,8.0,-999.0,78,-99.99,,,0.00,weatherlink.com 1.10,2013-03-17 18:19:00,
2013-03-17 14:34:00,61.2,54.0,30.05,NE,53,7.0,-999.0,77,-99.99,,,0.00,weatherlink.com 1.10,2013-03-17 18:34:00,
2013-03-17 14:49:00,60.0,52.0,30.04,East,85,10.0,-999.0,76,-99.99,,,0.00,weatherlink.com 1.10,2013-03-17 18:49:00,
2013-03-17 15:04:00,59.0,51.0,30.04,ENE,71,6.0,-999.0,75,-99.99,,,0.00,weatherlink.com 1.10,2013-03-17 19:04:00,
2013-03-17 15:19:00,59.6,51.0,30.04,ENE,76,12.0,-999.0,72,-99.99,,,0.00,weatherlink.com 1.10,2013-03-17 19:19:00,
2013-03-17 15:34:00,60.0,51.0,30.03,ENE,69,14.0,-999.0,71,-99.99,,,0.00,weatherlink.com 1.10,2013-03-17 19:34:00,
2013-03-17 15:49:00,60.1,51.0,30.03,ENE,75,15.0,-999.0,72,-99.99,,,0.00,weatherlink.com 1.10,2013-03-17 19:49:00,
2013-03-17 16:05:00,60.0,51.0,30.04,NNE,31,10.0,-999.0,71,-99.99,,,0.00,weatherlink.com 1.10,2013-03-17 20:05:00,
2013-03-17 16:20:00,59.1,50.0,30.04,NE,48,5.0,-999.0,73,-99.99,,,0.00,weatherlink.com 1.10,2013-03-17 20:20:00,
2013-03-17 16:35:00,57.9,49.0,30.05,NE,55,10.0,-999.0,73,-99.99,,,0.00,weatherlink.com 1.10,2013-03-17 20:35:00,
2013-03-17 16:50:00,56.9,49.0,30.05,NE,38,9.0,-999.0,75,-99.99,,,0.00,weatherlink.com 1.10,2013-03-17 20:50:00,
2013-03-17 17:05:00,55.7,48.0,30.06,NE,48,13.0,-999.0,76,-99.99,,,0.00,weatherlink.com 1.10,2013-03-17 21:05:00,
2013-03-17 17:20:00,54.6,48.0,30.07,ENE,62,14.0,-999.0,78,-99.99,,,0.00,weatherlink.com 1.10,2013-03-17 21:20:00,
2013-03-17 17:35:00,53.3,47.0,30.07,ENE,65,14.0,-999.0,79,-99.99,,,0.00,weatherlink.com 1.10,2013-03-17 21:35:00,
2013-03-17 17:50:00,52.7,47.0,30.08,ENE,66,19.0,-999.0,80,-99.99,,,0.00,weatherlink.com 1.10,2013-03-17 21:50:00,
2013-03-17 18:05:00,52.1,46.0,30.09,ENE,63,13.0,-999.0,81,-99.99,,,0.00,weatherlink.com 1.10,2013-03-17 22:05:00,
2013-03-17 18:20:00,51.7,46.0,30.09,NE,53,12.0,-999.0,82,-99.99,,,0.00,weatherlink.com 1.10,2013-03-17 22:20:00,
2013-03-17 18:35:00,51.4,46.0,30.11,ENE,57,10.0,-999.0,82,-99.99,,,0.00,weatherlink.com 1.10,2013-03-17 22:35:00,
2013-03-17 18:50:00,51.2,46.0,30.12,NE,38,11.0,-999.0,83,-99.99,,,0.00,weatherlink.com 1.10,2013-03-17 22:50:00,
2013-03-17 19:05:00,50.7,46.0,30.12,NNE,33,11.0,-999.0,83,-99.99,,,0.00,weatherlink.com 1.10,2013-03-17 23:05:00,
2013-03-17 19:20:00,50.3,46.0,30.13,NE,46,17.0,-999.0,84,-99.99,,,0.00,weatherlink.com 1.10,2013-03-17 23:20:00,
2013-03-17 19:35:00,50.0,45.0,30.14,ENE,69,15.0,-999.0,84,-99.99,,,0.00,weatherlink.com 1.10,2013-03-17 23:35:00,
2013-03-17 19:50:00,49.8,46.0,30.14,NNE,32,9.0,-999.0,85,-99.99,,,0.00,weatherlink.com 1.10,2013-03-17 23:50:00,
2013-03-17 20:05:00,49.5,45.0,30.14,NE,44,10.0,-999.0,85,-99.99,,,0.00,weatherlink.com 1.10,2013-03-18 00:05:00,
2013-03-17 20:20:00,49.4,45.0,30.14,NE,51,8.0,-999.0,86,-99.99,,,0.00,weatherlink.com 1.10,2013-03-18 00:20:00,
2013-03-17 20:35:00,49.2,45.0,30.14,East,86,17.0,-999.0,85,-99.99,,,0.00,weatherlink.com 1.10,2013-03-18 00:35:00,
2013-03-17 20:50:00,49.0,45.0,30.15,ENE,60,13.0,-999.0,85,-99.99,,,0.00,weatherlink.com 1.10,2013-03-18 00:50:00,
2013-03-17 21:05:00,49.0,45.0,30.15,NE,46,14.0,-999.0,85,-99.99,,,0.00,weatherlink.com 1.10,2013-03-18 01:05:00,
2013-03-17 21:20:00,48.9,45.0,30.16,NNE,32,14.0,-999.0,85,-99.99,,,0.00,weatherlink.com 1.10,2013-03-18 01:20:00,
2013-03-17 21:35:00,48.7,44.0,30.16,NE,55,7.0,-999.0,85,-99.99,,,0.00,weatherlink.com 1.10,2013-03-18 01:35:00,
2013-03-17 21:50:00,48.6,44.0,30.16,NE,49,16.0,-999.0,85,-99.99,,,0.00,weatherlink.com 1.10,2013-03-18 01:50:00,
2013-03-17 22:05:00,48.4,44.0,30.16,ENE,70,8.0,-999.0,85,-99.99,,,0.00,weatherlink.com 1.10,2013-03-18 02:05:00,
2013-03-17 22:20:00,48.3,44.0,30.18,NNE,33,8.0,-999.0,85,-99.99,,,0.00,weatherlink.com 1.10,2013-03-18 02:20:00,
2013-03-17 22:35:00,48.1,44.0,30.19,NE,51,15.0,-999.0,84,-99.99,,,0.00,weatherlink.com 1.10,2013-03-18 02:35:00,
2013-03-17 22:50:00,48.0,43.0,30.19,NE,52,13.0,-999.0,84,-99.99,,,0.00,weatherlink.com 1.10,2013-03-18 02:50:00,
2013-03-17 23:06:00,47.9,43.0,30.18,NE,38,11.0,-999.0,84,-99.99,,,0.00,weatherlink.com 1.10,2013-03-18 03:06:00,
2013-03-17 23:21:00,48.0,43.0,30.18,ENE,67,13.0,-999.0,84,-99.99,,,0.00,weatherlink.com 1.10,2013-03-18 03:21:00,
2013-03-17 23:36:00,48.2,44.0,30.18,NE,55,14.0,-999.0,85,-99.99,,,0.00,weatherlink.com 1.10,2013-03-18 03:36:00,
2013-03-17 23:51:00,48.4,44.0,30.18,NE,49,17.0,-999.0,86,-99.99,,,0.00,weatherlink.com 1.10,2013-03-18 03:51:00,